^^
Datos históricos de la estación: Murcia-Puente Tocinos
Diario Informe para Enero 17, 2020 Unidades:  Ingés    Métrico   Ambas
Diario Semanal Mensual Anual
  Máxima: Mínima: Promedio:
Temperatura: 67.5 °F 40.8 °F 53.8 °F
Punto de rocio: 41.9 °F 35.1 °F 39 °F
Humedad: 80% 36% 60%
Velocidad viento: 12.5mph 1.4mph 4.3mph
Racha viento: 23mph - -
Viento- - SSO
Presión: 30.5 in 30.3 in -
Precipitación: 0 in    
 
 
Tabla de datos para Enero 17, 2020
Hora Temperatura Punto de rocio Presión Viento Velocidad viento Racha viento Humedad Intensidad lluvia(por hora) Nubes
00:04 49.8 °F 40.8 °F 30.4 in SO 4.7 mph 6.9 mph 71% 0 in
00:09 49.8 °F 40.8 °F 30.4 in SO 4.3 mph 7 mph 71% 0 in
00:14 49.6 °F 40.6 °F 30.4 in SO 4.5 mph 7 mph 71% 0 in
00:19 49.6 °F 40.8 °F 30.4 in SO 4.7 mph 6.2 mph 71.6% 0 in
00:24 49.6 °F 41 °F 30.4 in SSO 4.5 mph 6.2 mph 72% 0 in
00:29 49.6 °F 40.6 °F 30.4 in SSO 4.3 mph 6.2 mph 71.2% 0 in
00:34 49.6 °F 40.6 °F 30.4 in Sur 4.3 mph 6.2 mph 71% 0 in
00:39 49.6 °F 40.6 °F 30.4 in SSO 4.3 mph 6.9 mph 71% 0 in
00:44 49.5 °F 40.5 °F 30.3 in Sur 4.5 mph 9.2 mph 71% 0 in
00:49 49.1 °F 40.5 °F 30.3 in SSO 4.7 mph 9 mph 71.8% 0 in
00:54 48.7 °F 40.3 °F 30.3 in SSO 5 mph 9 mph 72.2% 0 in
00:59 48.7 °F 40.5 °F 30.3 in SSO 5.4 mph 9.2 mph 73% 0 in
01:04 48.7 °F 40.5 °F 30.3 in SSO 5.7 mph 9 mph 73% 0 in
01:09 48.7 °F 40.3 °F 30.3 in SSO 5.9 mph 8 mph 72.3% 0 in
01:14 48.7 °F 40.1 °F 30.3 in Sur 5.1 mph 7 mph 72% 0 in
01:19 48.6 °F 40.3 °F 30.3 in SSO 4.3 mph 6.9 mph 72.8% 0 in
01:24 48.6 °F 40.3 °F 30.3 in SSO 4 mph 7 mph 73% 0 in
01:29 48.4 °F 39.7 °F 30.3 in SO 3.6 mph 7 mph 72% 0 in
01:34 48.4 °F 39.7 °F 30.3 in Sur 3.8 mph 6.4 mph 72% 0 in
01:39 48.2 °F 39.6 °F 30.3 in SSE 4 mph 7 mph 72% 0 in
01:44 47.8 °F 39.4 °F 30.3 in SSE 4.2 mph 8.5 mph 72.7% 0 in
01:49 47.3 °F 39.4 °F 30.3 in SSE 4.3 mph 9 mph 73.6% 0 in
01:54 46.9 °F 39.4 °F 30.3 in Sur 4.8 mph 8.1 mph 74.6% 0 in
01:59 46.8 °F 39.4 °F 30.3 in SSE 5.2 mph 8 mph 75% 0 in
02:04 46.8 °F 39.4 °F 30.3 in SSE 4.7 mph 6.9 mph 75% 0 in
02:09 46.6 °F 39.4 °F 30.3 in SO 4.3 mph 7.4 mph 75.7% 0 in
02:14 46.6 °F 39.4 °F 30.3 in SO 4.3 mph 7 mph 76% 0 in
02:19 46.6 °F 39.4 °F 30.3 in Sur 4.3 mph 6.2 mph 76% 0 in
02:24 46.6 °F 39.4 °F 30.3 in Sur 4.5 mph 8.1 mph 75.7% 0 in
02:29 46.6 °F 39 °F 30.3 in SSO 4.7 mph 8.1 mph 75% 0 in
02:34 46.4 °F 39 °F 30.3 in SSO 4.7 mph 6.9 mph 75.1% 0 in
02:39 46.2 °F 38.8 °F 30.4 in Sur 4.7 mph 7 mph 75.4% 0 in
02:44 46.2 °F 39 °F 30.4 in Sur 4.5 mph 6.2 mph 76% 0 in
02:49 46 °F 39 °F 30.4 in Sur 4.3 mph 8.7 mph 76% 0 in
02:54 46 °F 38.8 °F 30.4 in Sur 4.8 mph 9.2 mph 75.9% 0 in
02:59 45.7 °F 38.5 °F 30.3 in Sur 5.4 mph 9 mph 76% 0 in
03:04 45.5 °F 38.3 °F 30.3 in SSO 5 mph 8.7 mph 76% 0 in
03:09 45.3 °F 38.1 °F 30.4 in SO 4.7 mph 9.2 mph 76% 0 in
03:14 45.3 °F 38.3 °F 30.4 in SO 4.3 mph 7 mph 76% 0 in
03:19 45.5 °F 38.5 °F 30.4 in SSO 4 mph 6 mph 76% 0 in
03:24 45.7 °F 38.3 °F 30.4 in OSO 3.5 mph 6 mph 75.5% 0 in
03:29 45.7 °F 38.1 °F 30.4 in OSO 3.1 mph 6 mph 75% 0 in
03:34 45.7 °F 38.1 °F 30.4 in OSO 2.7 mph 5.8 mph 75% 0 in
03:39 45.7 °F 38.1 °F 30.4 in SO 2.4 mph 6 mph 75% 0 in
03:44 45.5 °F 38.1 °F 30.4 in SSO 2.4 mph 5.9 mph 75% 0 in
03:49 45.5 °F 37.9 °F 30.4 in SSE 2.4 mph 6.2 mph 75% 0 in
03:54 45.5 °F 37.9 °F 30.4 in Sur 3 mph 6 mph 75% 0 in
03:59 45.1 °F 37.8 °F 30.4 in Sur 3.6 mph 6.4 mph 75% 0 in
04:04 45 °F 37.6 °F 30.4 in SSO 3.6 mph 6.9 mph 75.2% 0 in
04:09 45 °F 37.8 °F 30.4 in Sur 3.6 mph 7 mph 76% 0 in
04:14 45 °F 37.8 °F 30.4 in Sur 3.9 mph 7.4 mph 76% 0 in
04:19 44.8 °F 37.8 °F 30.4 in Sur 4.3 mph 7 mph 76% 0 in
04:24 44.6 °F 37.4 °F 30.4 in SSE 4.5 mph 8.1 mph 76% 0 in
04:29 44.2 °F 37.6 °F 30.4 in SSE 4.7 mph 8.5 mph 76.9% 0 in
04:34 44.1 °F 37.2 °F 30.4 in SE 5 mph 9 mph 77% 0 in
04:39 43.9 °F 37 °F 30.4 in SSE 5.2 mph 7 mph 77% 0 in
04:44 43.3 °F 36.9 °F 30.4 in SSO 4.4 mph 6 mph 77.5% 0 in
04:49 43.3 °F 37.2 °F 30.4 in OSO 3.6 mph 6 mph 78.8% 0 in
04:54 43.3 °F 37.2 °F 30.4 in OSO 3.2 mph 5.9 mph 79% 0 in
04:59 43.5 °F 37.4 °F 30.4 in SO 2.9 mph 6.9 mph 79% 0 in
05:04 43.5 °F 37.4 °F 30.4 in SSO 3.5 mph 7.4 mph 79% 0 in
05:09 43.5 °F 37 °F 30.4 in SSE 4 mph 9.2 mph 78% 0 in
05:14 43.5 °F 37 °F 30.3 in Sur 4.7 mph 9.2 mph 78% 0 in
05:19 43.3 °F 36.9 °F 30.3 in SSE 5.4 mph 9.7 mph 77.6% 0 in
05:24 43.2 °F 36.9 °F 30.3 in Sur 5.3 mph 10 mph 77.9% 0 in
05:29 43.2 °F 36.9 °F 30.3 in SSO 5.2 mph 6.9 mph 78% 0 in
05:34 43.3 °F 36.9 °F 30.3 in OSO 4.7 mph 7 mph 78% 0 in
05:39 43.3 °F 36.7 °F 30.3 in Oeste 4.3 mph 7 mph 77% 0 in
05:44 43.3 °F 36.7 °F 30.3 in OSO 4.3 mph 7.4 mph 77% 0 in
05:49 43.3 °F 36.7 °F 30.3 in SSO 4.3 mph 7 mph 77% 0 in
05:54 43.3 °F 36.7 °F 30.3 in SE 4.2 mph 6 mph 77% 0 in
05:59 43.5 °F 36.5 °F 30.3 in SE 4 mph 6 mph 76.3% 0 in
06:04 43.5 °F 36.5 °F 30.3 in SE 3.5 mph 8.5 mph 76% 0 in
06:09 43.2 °F 36.3 °F 30.3 in SSE 3.1 mph 9 mph 76.6% 0 in
06:14 42.6 °F 36 °F 30.3 in SSE 4.3 mph 9.7 mph 77.2% 0 in
06:19 42.3 °F 35.8 °F 30.3 in Sur 5.4 mph 10 mph 78.2% 0 in
06:24 42.1 °F 36 °F 30.3 in SO 4.7 mph 6 mph 79% 0 in
06:29 42.3 °F 36.1 °F 30.3 in SO 4 mph 6.9 mph 79% 0 in
06:34 42.4 °F 36.5 °F 30.3 in SO 4.2 mph 7.4 mph 79% 0 in
06:39 42.8 °F 36.3 °F 30.3 in SO 4.3 mph 7 mph 78% 0 in
06:44 43 °F 36.3 °F 30.3 in Oeste 4.3 mph 7.4 mph 77.3% 0 in
06:49 43.2 °F 36.3 °F 30.3 in Oeste 4.3 mph 7 mph 77% 0 in
06:54 43 °F 36.3 °F 30.4 in OSO 3.6 mph 5 mph 77% 0 in
06:59 43 °F 36.3 °F 30.4 in SO 2.9 mph 7.4 mph 77% 0 in
07:04 43.2 °F 36.3 °F 30.4 in OSO 3.3 mph 7 mph 76.2% 0 in
07:09 43.3 °F 36 °F 30.4 in SSO 3.6 mph 6 mph 75.3% 0 in
07:14 43.5 °F 36 °F 30.4 in SE 3.6 mph 6.2 mph 75% 0 in
07:19 43 °F 35.6 °F 30.4 in SSE 3.6 mph 8.1 mph 75.2% 0 in
07:24 42.3 °F 35.4 °F 30.4 in SSE 4.2 mph 8 mph 76.6% 0 in
07:29 41.5 °F 35.2 °F 30.4 in SSE 4.7 mph 8.1 mph 78% 0 in
07:34 41.2 °F 35.1 °F 30.4 in SSE 5.3 mph 10.4 mph 78.7% 0 in
07:39 40.8 °F 35.2 °F 30.4 in Sur 5.9 mph 10 mph 79.9% 0 in
07:44 40.8 °F 35.2 °F 30.4 in Sur 5.3 mph 6.9 mph 80% 0 in
07:49 41.2 °F 35.4 °F 30.4 in Sur 4.7 mph 7 mph 80% 0 in
07:54 41.4 °F 35.8 °F 30.4 in SSE 4.1 mph 7.4 mph 80% 0 in
07:59 41.9 °F 36 °F 30.4 in SSO 3.6 mph 8.1 mph 79.2% 0 in
08:04 42.4 °F 36.1 °F 30.4 in SSO 4.5 mph 8 mph 78.1% 0 in
08:09 42.8 °F 36.3 °F 30.4 in SSE 5.2 mph 7.4 mph 77.7% 0 in
08:14 43.2 °F 36.3 °F 30.4 in SE 5.2 mph 9.2 mph 76.6% 0 in
08:19 42.8 °F 36.1 °F 30.4 in SE 5.2 mph 9.7 mph 77% 0 in
08:24 42.6 °F 36.1 °F 30.4 in SE 5.6 mph 10.4 mph 77.5% 0 in
08:29 42.3 °F 36.1 °F 30.4 in SSE 5.9 mph 10.7 mph 78.4% 0 in
08:34 42.1 °F 36 °F 30.4 in SSE 6.4 mph 11.5 mph 79% 0 in
08:39 42.1 °F 36 °F 30.4 in Sur 6.9 mph 12 mph 79% 0 in
08:44 42.3 °F 36.1 °F 30.4 in SSE 6.4 mph 9 mph 79% 0 in
08:49 42.4 °F 36.5 °F 30.4 in Sur 5.9 mph 8.1 mph 79% 0 in
08:54 43 °F 36.7 °F 30.4 in Sur 5.7 mph 8 mph 78.1% 0 in
08:59 43.3 °F 36.7 °F 30.4 in SO 5.4 mph 7 mph 77.4% 0 in
09:04 43.7 °F 36.9 °F 30.4 in Sur 4.7 mph 6.2 mph 76.5% 0 in
09:09 44.1 °F 36.9 °F 30.4 in SO 4 mph 6 mph 75.7% 0 in
09:14 44.2 °F 36.9 °F 30.4 in OSO 3.8 mph 6.9 mph 75% 0 in
09:19 44.8 °F 37 °F 30.4 in SO 3.6 mph 7 mph 74.2% 0 in
09:24 45 °F 37 °F 30.4 in SO 3.8 mph 7.4 mph 73.4% 0 in
09:29 45.5 °F 36.9 °F 30.4 in SO 4 mph 8.5 mph 71.8% 0 in
09:34 45.9 °F 36.9 °F 30.4 in SSO 4.7 mph 9 mph 70.6% 0 in
09:39 46 °F 36.9 °F 30.4 in Sur 5.4 mph 8 mph 70% 0 in
09:44 46.6 °F 37.2 °F 30.4 in SSO 4.5 mph 6 mph 70% 0 in
09:49 46.8 °F 37.2 °F 30.4 in Oeste 3.6 mph 5 mph 69.2% 0 in
09:54 47.1 °F 37.4 °F 30.4 in SO 2.7 mph 5 mph 68.4% 0 in
09:59 47.7 °F 37.2 °F 30.4 in SO 1.8 mph 5.9 mph 67% 0 in
10:04 47.8 °F 37 °F 30.4 in SO 2.8 mph 6.9 mph 66% 0 in
10:09 48 °F 37.2 °F 30.4 in SSO 3.6 mph 7 mph 66% 0 in
10:14 48.4 °F 37.2 °F 30.4 in SSE 4 mph 8.5 mph 65.4% 0 in
10:19 48.7 °F 37.6 °F 30.4 in SSE 4.3 mph 9 mph 65% 0 in
10:24 49.1 °F 37.6 °F 30.4 in Sur 4.5 mph 8 mph 64.5% 0 in
10:29 49.3 °F 37.4 °F 30.4 in SSO 4.7 mph 7.6 mph 63.5% 0 in
10:34 49.5 °F 37 °F 30.4 in SSO 5 mph 8.1 mph 62.3% 0 in
10:39 49.6 °F 37.4 °F 30.4 in SSO 5.2 mph 8 mph 62.5% 0 in
10:44 50 °F 37.4 °F 30.4 in SO 4.2 mph 5.9 mph 62% 0 in
10:49 50.2 °F 37.8 °F 30.4 in OSO 3.1 mph 6.2 mph 62% 0 in
10:54 50.4 °F 37.9 °F 30.4 in SSO 3.4 mph 6.9 mph 62% 0 in
10:59 50.9 °F 37.9 °F 30.4 in SSO 3.6 mph 7.4 mph 61% 0 in
11:04 51.3 °F 38.3 °F 30.4 in SSO 4 mph 7 mph 61% 0 in
11:09 51.6 °F 38.3 °F 30.4 in Sur 4.3 mph 7 mph 60% 0 in
11:14 52.2 °F 38.5 °F 30.4 in Sur 4.5 mph 8.1 mph 59.3% 0 in
11:19 52.7 °F 38.8 °F 30.4 in SSE 4.7 mph 8 mph 59.2% 0 in
11:24 53.1 °F 38.8 °F 30.4 in SSE 5 mph 8.5 mph 58.3% 0 in
11:29 53.4 °F 38.8 °F 30.4 in Sur 5.2 mph 9 mph 57.4% 0 in
11:34 53.8 °F 38.7 °F 30.4 in Sur 5.2 mph 8.5 mph 56.3% 0 in
11:39 54.1 °F 38.7 °F 30.4 in SSO 5.2 mph 9 mph 55.8% 0 in
11:44 54.7 °F 38.5 °F 30.4 in SSO 4.7 mph 8.1 mph 54.4% 0 in
11:49 54.9 °F 38.3 °F 30.4 in SSO 4.3 mph 8 mph 53.7% 0 in
11:54 55.4 °F 38.5 °F 30.4 in Sur 4.5 mph 7.6 mph 52.8% 0 in
11:59 55.9 °F 38.5 °F 30.4 in Sur 4.7 mph 8.1 mph 51.6% 0 in
12:04 56.7 °F 38.7 °F 30.4 in Sur 5 mph 8.1 mph 50.9% 0 in
12:09 57 °F 38.7 °F 30.4 in Sur 5.2 mph 8.1 mph 50% 0 in
12:14 57.6 °F 38.8 °F 30.4 in Sur 4.9 mph 8.5 mph 49.8% 0 in
12:19 57.7 °F 38.7 °F 30.4 in SSE 4.7 mph 9 mph 48.8% 0 in
12:24 57.7 °F 38.7 °F 30.4 in SSE 5.1 mph 8.1 mph 48.6% 0 in
12:29 58.3 °F 38.8 °F 30.4 in SSO 5.4 mph 7 mph 48.2% 0 in
12:34 58.8 °F 38.5 °F 30.4 in SSO 4.5 mph 6 mph 46.7% 0 in
12:39 59.4 °F 38.5 °F 30.4 in SO 3.6 mph 6 mph 45.6% 0 in
12:44 59.9 °F 38.7 °F 30.4 in SO 3.6 mph 7.4 mph 45.2% 0 in
12:49 60.3 °F 38.3 °F 30.4 in OSO 3.6 mph 7 mph 44.3% 0 in
12:54 60.4 °F 38.5 °F 30.4 in SSO 3.4 mph 6 mph 44.2% 0 in
12:59 61 °F 38.8 °F 30.4 in SSO 3.1 mph 6.2 mph 44% 0 in
13:04 61.3 °F 39 °F 30.4 in SSO 3.4 mph 6.9 mph 43.5% 0 in
13:09 61.9 °F 39 °F 30.4 in Sur 3.6 mph 7 mph 42.7% 0 in
13:14 62.2 °F 39 °F 30.4 in Sur 3.8 mph 7 mph 42.3% 0 in
13:19 62.8 °F 39 °F 30.4 in SSE 4 mph 6 mph 41.6% 0 in
13:24 63.1 °F 39 °F 30.4 in SSE 3.5 mph 6.9 mph 40.9% 0 in
13:29 63.3 °F 39.2 °F 30.4 in SSE 3.1 mph 7 mph 40.9% 0 in
13:34 63.7 °F 39.2 °F 30.4 in SSE 3.1 mph 5.8 mph 40.4% 0 in
13:39 63.9 °F 39.2 °F 30.4 in SE 3.1 mph 6 mph 40% 0 in
13:44 64.2 °F 38.8 °F 30.4 in Sur 3.1 mph 6 mph 39.1% 0 in
13:49 64.6 °F 38.7 °F 30.4 in Sur 3.1 mph 5.2 mph 38.2% 0 in
13:54 64.9 °F 38.8 °F 30.4 in SSE 3 mph 6.9 mph 38.3% 0 in
13:59 65.1 °F 38.8 °F 30.4 in SSO 2.9 mph 7.4 mph 38% 0 in
14:04 64.9 °F 38.1 °F 30.4 in SSE 3.8 mph 7 mph 37.2% 0 in
14:09 65.1 °F 38.3 °F 30.4 in Sur 4.7 mph 7 mph 37% 0 in
14:14 65.5 °F 38.5 °F 30.4 in SO 4.3 mph 7 mph 36.9% 0 in
14:19 65.7 °F 38.5 °F 30.4 in Sur 4 mph 7 mph 36.7% 0 in
14:24 65.8 °F 38.5 °F 30.4 in Sur 3.5 mph 6 mph 36.4% 0 in
14:29 66 °F 38.3 °F 30.4 in Sur 3.1 mph 6 mph 36% 0 in
14:34 66.4 °F 38.5 °F 30.4 in OSO 2.7 mph 5 mph 36% 0 in
14:39 66.6 °F 38.7 °F 30.4 in SO 2.4 mph 5.2 mph 36% 0 in
14:44 66.4 °F 38.7 °F 30.4 in SO 2.4 mph 5 mph 36% 0 in
14:49 66.4 °F 38.7 °F 30.4 in SO 2.4 mph 5 mph 36% 0 in
14:54 66.4 °F 38.8 °F 30.4 in SSE 2.4 mph 5.9 mph 36.2% 0 in
14:59 66.6 °F 38.7 °F 30.3 in SE 2.4 mph 8.1 mph 36% 0 in
15:04 66.6 °F 38.8 °F 30.3 in Sur 3.4 mph 8.1 mph 36% 0 in
15:09 66.6 °F 38.8 °F 30.3 in SSE 4.3 mph 8 mph 36% 0 in
15:14 66.6 °F 38.8 °F 30.3 in Sur 4.3 mph 8.1 mph 36% 0 in
15:19 66.6 °F 38.8 °F 30.3 in SSE 4.3 mph 8 mph 36% 0 in
15:24 66.7 °F 38.8 °F 30.3 in SSE 4.5 mph 8.1 mph 36% 0 in
15:29 66.7 °F 38.8 °F 30.3 in SSE 4.7 mph 10.7 mph 36% 0 in
15:34 66.7 °F 38.8 °F 30.3 in Sur 5.3 mph 11 mph 36% 0 in
15:39 66.6 °F 38.8 °F 30.3 in Sur 5.9 mph 9 mph 36% 0 in
15:44 66.7 °F 39 °F 30.3 in SSO 5.7 mph 9.7 mph 36% 0 in
15:49 67.1 °F 39.2 °F 30.3 in OSO 5.4 mph 10 mph 36% 0 in
15:54 67.3 °F 39.4 °F 30.3 in OSO 4.8 mph 9 mph 36% 0 in
15:59 67.5 °F 39.9 °F 30.3 in SSO 4.3 mph 9.7 mph 36.3% 0 in
16:04 67.5 °F 40.5 °F 30.3 in ONO 4.3 mph 21.3 mph 37.1% 0 in
16:09 67.3 °F 40.8 °F 30.3 in ONO 4.3 mph 23 mph 38% 0 in
16:14 67.1 °F 40.6 °F 30.3 in ONO 8.3 mph 23 mph 38% 0 in
16:19 66.9 °F 40.6 °F 30.3 in ONO 12.5 mph 20.7 mph 38.1% 0 in
16:24 66.7 °F 40.6 °F 30.3 in NO 12.2 mph 21 mph 38.3% 0 in
16:29 66.7 °F 40.8 °F 30.3 in ONO 11.8 mph 21 mph 38.8% 0 in
16:34 66.6 °F 40.8 °F 30.3 in ONO 11.2 mph 19 mph 39% 0 in
16:39 66.4 °F 40.6 °F 30.3 in ONO 10.7 mph 20.7 mph 39% 0 in
16:44 66 °F 40.3 °F 30.3 in ONO 11.2 mph 21 mph 39% 0 in
16:49 66.4 °F 40.6 °F 30.3 in ONO 11.8 mph 17.3 mph 39% 0 in
16:54 66.4 °F 40.6 °F 30.3 in ONO 10.7 mph 17.3 mph 39% 0 in
16:59 66.2 °F 40.6 °F 30.3 in ONO 9.7 mph 17 mph 39% 0 in
17:04 66.2 °F 40.5 °F 30.3 in ONO 8.6 mph 16.3 mph 39% 0 in
17:09 66 °F 40.3 °F 30.4 in ONO 7.6 mph 16 mph 39% 0 in
17:14 65.8 °F 40.5 °F 30.4 in Oeste 7.3 mph 12.3 mph 39.3% 0 in
17:19 65.7 °F 40.8 °F 30.4 in Oeste 6.9 mph 13.8 mph 40% 0 in
17:24 65.7 °F 40.6 °F 30.4 in OSO 6.2 mph 14 mph 40% 0 in
17:29 65.5 °F 40.5 °F 30.4 in OSO 5.4 mph 11 mph 40% 0 in
17:34 65.5 °F 40.6 °F 30.4 in OSO 5.4 mph 11 mph 40.1% 0 in
17:39 65.5 °F 40.6 °F 30.4 in OSO 5.4 mph 11 mph 40.4% 0 in
17:44 65.1 °F 40.8 °F 30.4 in OSO 5.3 mph 10 mph 41% 0 in
17:49 65.1 °F 40.8 °F 30.4 in OSO 5.2 mph 10 mph 41% 0 in
17:54 64.9 °F 40.6 °F 30.4 in SO 5.2 mph 9 mph 41% 0 in
17:59 64.9 °F 40.6 °F 30.4 in SO 5.2 mph 8 mph 41% 0 in
18:04 64.9 °F 40.6 °F 30.4 in SO 4.5 mph 6 mph 41% 0 in
18:09 64.8 °F 40.5 °F 30.4 in SSO 4 mph 6 mph 41% 0 in
18:14 64.8 °F 40.5 °F 30.4 in SSO 3.5 mph 5.2 mph 41% 0 in
18:19 64.6 °F 40.5 °F 30.4 in SO 3.1 mph 5.9 mph 41.2% 0 in
18:24 64.4 °F 40.8 °F 30.4 in SSO 3.5 mph 6.9 mph 42% 0 in
18:29 64.2 °F 40.6 °F 30.4 in SSO 4 mph 7 mph 42% 0 in
18:34 64 °F 40.8 °F 30.4 in SSO 4 mph 7 mph 42.6% 0 in
18:39 63.9 °F 40.8 °F 30.4 in SSO 4 mph 5 mph 43% 0 in
18:44 63.7 °F 40.6 °F 30.4 in SSO 3.5 mph 5.9 mph 43% 0 in
18:49 63.5 °F 40.6 °F 30.4 in SO 2.9 mph 6.9 mph 43% 0 in
18:54 63.3 °F 40.5 °F 30.4 in OSO 3.6 mph 7.4 mph 43% 0 in
18:59 63.1 °F 40.8 °F 30.4 in OSO 4.3 mph 7 mph 43.9% 0 in
19:04 63 °F 40.6 °F 30.4 in OSO 3.9 mph 6.2 mph 44% 0 in
19:09 62.8 °F 40.5 °F 30.4 in SO 3.6 mph 6 mph 44% 0 in
19:14 62.8 °F 40.6 °F 30.4 in SSO 3.4 mph 6 mph 44.2% 0 in
19:19 62.4 °F 40.8 °F 30.4 in Sur 3.1 mph 5 mph 45% 0 in
19:24 62.2 °F 40.6 °F 30.4 in SSO 2.2 mph 3.6 mph 45% 0 in
19:29 62.1 °F 40.5 °F 30.4 in NO 1.4 mph 4 mph 45% 0 in
19:34 61.9 °F 40.8 °F 30.4 in NO 1.7 mph 4 mph 46% 0 in
19:39 61.5 °F 40.6 °F 30.4 in NO 2 mph 3 mph 46% 0 in
19:44 61.3 °F 40.5 °F 30.4 in ONO 1.7 mph 3.6 mph 46.1% 0 in
19:49 61.3 °F 40.8 °F 30.4 in SO 1.4 mph 4.6 mph 46.9% 0 in
19:54 61.3 °F 40.8 °F 30.4 in SO 1.6 mph 5 mph 47% 0 in
19:59 61.2 °F 40.8 °F 30.4 in SO 2.4 mph 5.2 mph 47% 0 in
20:04 61 °F 41 °F 30.4 in SO 2.7 mph 5.2 mph 47.9% 0 in
20:09 60.8 °F 41 °F 30.4 in Sur 3.1 mph 5.9 mph 48% 0 in
20:14 60.4 °F 41.2 °F 30.4 in SSE 3.7 mph 7 mph 48.9% 0 in
20:19 60.1 °F 41.2 °F 30.4 in SSE 4.3 mph 7 mph 49.7% 0 in
20:24 59.7 °F 41 °F 30.4 in SSE 4 mph 7 mph 50% 0 in
20:29 59.7 °F 41 °F 30.4 in SSO 3.6 mph 7 mph 50% 0 in
20:34 59.7 °F 41.2 °F 30.4 in OSO 3.8 mph 6.2 mph 50.3% 0 in
20:39 59.7 °F 41.5 °F 30.4 in SO 4 mph 6.2 mph 51% 0 in
20:44 59.5 °F 41.4 °F 30.4 in OSO 4 mph 6.2 mph 51% 0 in
20:49 59.4 °F 41.2 °F 30.4 in SO 4 mph 6.9 mph 51% 0 in
20:54 59.5 °F 41 °F 30.4 in SO 4.2 mph 7 mph 50.3% 0 in
20:59 59.4 °F 40.8 °F 30.4 in SO 4.3 mph 5 mph 50.3% 0 in
21:04 59 °F 41.2 °F 30.4 in NNE 3.3 mph 5.9 mph 51.5% 0 in
21:09 58.3 °F 41.2 °F 30.4 in SSE 2.4 mph 6 mph 52.7% 0 in
21:14 58.3 °F 41.2 °F 30.4 in Sur 3.2 mph 6.4 mph 53% 0 in
21:19 58.1 °F 41 °F 30.4 in Sur 4 mph 7 mph 53% 0 in
21:24 57.7 °F 41.2 °F 30.4 in SE 4.2 mph 7 mph 54% 0 in
21:29 57 °F 41.2 °F 30.4 in SSE 4.3 mph 8.1 mph 55.4% 0 in
21:34 56.3 °F 41.2 °F 30.4 in Sur 4.3 mph 8.1 mph 56.6% 0 in
21:39 56.1 °F 41 °F 30.4 in SSO 4.3 mph 8 mph 57% 0 in
21:44 55.9 °F 41 °F 30.4 in SSO 3.3 mph 5.2 mph 57% 0 in
21:49 56.1 °F 41.2 °F 30.4 in SSO 2.4 mph 5 mph 57% 0 in
21:54 56.1 °F 41.2 °F 30.4 in SSE 2.7 mph 6.9 mph 57% 0 in
21:59 56.5 °F 41.4 °F 30.4 in Sur 2.9 mph 7 mph 56.9% 0 in
22:04 56.1 °F 41.2 °F 30.4 in OSO 3.5 mph 6 mph 57% 0 in
22:09 55.9 °F 41 °F 30.4 in OSO 4 mph 5.2 mph 57.1% 0 in
22:14 55.6 °F 41 °F 30.4 in OSO 3.2 mph 5 mph 58% 0 in
22:19 55.2 °F 41 °F 30.4 in Oeste 2.4 mph 5.2 mph 58.5% 0 in
22:24 54.9 °F 41.2 °F 30.4 in OSO 2.7 mph 5 mph 59.6% 0 in
22:29 54.7 °F 41 °F 30.4 in OSO 2.9 mph 5 mph 60% 0 in
22:34 54.3 °F 41 °F 30.4 in OSO 2.6 mph 5 mph 60.8% 0 in
22:39 54.1 °F 41 °F 30.4 in OSO 2.4 mph 5 mph 61% 0 in
22:44 54.1 °F 41 °F 30.4 in ONO 2.7 mph 5 mph 61% 0 in
22:49 54.1 °F 41 °F 30.4 in Oeste 2.9 mph 5.2 mph 61.4% 0 in
22:54 54 °F 41.2 °F 30.4 in Oeste 2.6 mph 5 mph 62% 0 in
22:59 53.6 °F 41.2 °F 30.4 in SO 2.4 mph 4 mph 62.9% 0 in
23:04 53.6 °F 41.4 °F 30.4 in SO 2.2 mph 4.6 mph 63% 0 in
23:09 54 °F 41.4 °F 30.4 in SO 2 mph 5 mph 62.4% 0 in
23:14 54.1 °F 41.4 °F 30.4 in SSE 2.5 mph 5.8 mph 62% 0 in
23:19 54.1 °F 41.4 °F 30.4 in SE 3.1 mph 6 mph 62% 0 in
23:24 54.1 °F 41.4 °F 30.5 in SE 2.7 mph 5 mph 62% 0 in
23:29 54 °F 41.5 °F 30.5 in SSE 2.4 mph 5 mph 62.8% 0 in
23:34 54 °F 41.7 °F 30.5 in SSE 2.4 mph 5 mph 63.3% 0 in
23:39 53.8 °F 41.9 °F 30.5 in SE 2.4 mph 5 mph 64% 0 in
23:44 53.4 °F 41.7 °F 30.5 in SE 2.7 mph 5 mph 64.3% 0 in
23:49 53.1 °F 41.7 °F 30.5 in Sur 2.9 mph 5.2 mph 65.2% 0 in
23:54 53.2 °F 41.7 °F 30.5 in SO 2.9 mph 5.9 mph 65.1% 0 in
23:59 53.4 °F 41.9 °F 30.5 in OSO 2.9 mph 6 mph 65% 0 in
Murcia-Puente Tocinos, España
Compliments of Weather Underground - 3.5 mb

La estación de MeteoMurcia.com, publica sus datos en los siguientes proyectos:

Weather Underground PWS IMURCIAP2 Meteoclimatic www.awekas.at

W3Counter
Web Analytics